sensor_id;sensor_type;location;lat;lon;timestamp;temperature;humidity
11944;DHT22;6031;50.220;10.122;2023-02-28T00:00:29;-4.10;1.00
11944;DHT22;6031;50.220;10.122;2023-02-28T00:02:55;-4.10;99.90
11944;DHT22;6031;50.220;10.122;2023-02-28T00:05:23;-4.00;99.90
11944;DHT22;6031;50.220;10.122;2023-02-28T00:07:49;-4.10;1.00
11944;DHT22;6031;50.220;10.122;2023-02-28T00:10:23;-4.00;99.90
11944;DHT22;6031;50.220;10.122;2023-02-28T00:12:54;-4.00;1.00
11944;DHT22;6031;50.220;10.122;2023-02-28T00:15:22;-4.10;1.00
11944;DHT22;6031;50.220;10.122;2023-02-28T00:17:48;-4.10;1.00
11944;DHT22;6031;50.220;10.122;2023-02-28T00:20:14;-4.10;99.90
11944;DHT22;6031;50.220;10.122;2023-02-28T00:22:43;-4.00;1.00
11944;DHT22;6031;50.220;10.122;2023-02-28T00:25:10;-4.00;1.00
11944;DHT22;6031;50.220;10.122;2023-02-28T00:27:37;-4.10;1.00
11944;DHT22;6031;50.220;10.122;2023-02-28T00:30:04;-4.20;99.90
11944;DHT22;6031;50.220;10.122;2023-02-28T00:32:30;-4.30;91.40
11944;DHT22;6031;50.220;10.122;2023-02-28T00:34:56;-4.20;1.00
11944;DHT22;6031;50.220;10.122;2023-02-28T00:37:21;-4.30;1.00
11944;DHT22;6031;50.220;10.122;2023-02-28T00:39:47;-4.40;99.90
11944;DHT22;6031;50.220;10.122;2023-02-28T00:42:12;-4.40;1.00
11944;DHT22;6031;50.220;10.122;2023-02-28T00:44:38;-4.50;99.90
11944;DHT22;6031;50.220;10.122;2023-02-28T00:47:04;-4.50;1.00
11944;DHT22;6031;50.220;10.122;2023-02-28T00:49:29;-4.60;99.90
11944;DHT22;6031;50.220;10.122;2023-02-28T00:51:55;-4.70;1.00
11944;DHT22;6031;50.220;10.122;2023-02-28T00:54:22;-4.70;1.00
11944;DHT22;6031;50.220;10.122;2023-02-28T00:56:48;-4.70;1.00
11944;DHT22;6031;50.220;10.122;2023-02-28T00:59:14;-4.70;1.00
11944;DHT22;6031;50.220;10.122;2023-02-28T01:01:40;-4.80;99.90
11944;DHT22;6031;50.220;10.122;2023-02-28T01:04:06;-4.90;1.00
11944;DHT22;6031;50.220;10.122;2023-02-28T01:06:32;-4.90;1.00
11944;DHT22;6031;50.220;10.122;2023-02-28T01:08:58;-4.70;99.90
11944;DHT22;6031;50.220;10.122;2023-02-28T01:11:24;-4.80;1.00
11944;DHT22;6031;50.220;10.122;2023-02-28T01:13:50;-4.90;1.00
11944;DHT22;6031;50.220;10.122;2023-02-28T01:16:16;-4.80;1.00
11944;DHT22;6031;50.220;10.122;2023-02-28T01:18:41;-4.70;99.90
11944;DHT22;6031;50.220;10.122;2023-02-28T01:21:13;-4.60;99.90
11944;DHT22;6031;50.220;10.122;2023-02-28T01:23:39;-4.60;99.90
11944;DHT22;6031;50.220;10.122;2023-02-28T01:26:07;-4.40;1.00
11944;DHT22;6031;50.220;10.122;2023-02-28T01:28:33;-4.40;1.00
11944;DHT22;6031;50.220;10.122;2023-02-28T01:30:58;-4.40;1.00
11944;DHT22;6031;50.220;10.122;2023-02-28T01:33:24;-4.50;1.00
11944;DHT22;6031;50.220;10.122;2023-02-28T01:35:50;-4.50;99.90
11944;DHT22;6031;50.220;10.122;2023-02-28T01:38:22;-4.60;99.90
11944;DHT22;6031;50.220;10.122;2023-02-28T01:40:47;-4.70;1.00
11944;DHT22;6031;50.220;10.122;2023-02-28T01:43:23;-4.80;1.00
11944;DHT22;6031;50.220;10.122;2023-02-28T01:45:50;-4.90;99.60
11944;DHT22;6031;50.220;10.122;2023-02-28T01:48:16;-4.90;99.90
11944;DHT22;6031;50.220;10.122;2023-02-28T01:50:43;-5.00;99.90
11944;DHT22;6031;50.220;10.122;2023-02-28T01:53:14;-5.00;99.90
11944;DHT22;6031;50.220;10.122;2023-02-28T01:55:42;-5.10;99.90
11944;DHT22;6031;50.220;10.122;2023-02-28T01:58:10;-5.20;99.90
11944;DHT22;6031;50.220;10.122;2023-02-28T02:00:36;-5.30;1.00
11944;DHT22;6031;50.220;10.122;2023-02-28T02:03:12;-5.30;99.90
11944;DHT22;6031;50.220;10.122;2023-02-28T02:05:39;-5.30;99.90
11944;DHT22;6031;50.220;10.122;2023-02-28T02:08:09;-5.30;96.30
11944;DHT22;6031;50.220;10.122;2023-02-28T02:10:41;-5.40;1.00
11944;DHT22;6031;50.220;10.122;2023-02-28T02:16:28;-5.20;1.00
11944;DHT22;6031;50.220;10.122;2023-02-28T02:19:37;-5.40;1.00
11944;DHT22;6031;50.220;10.122;2023-02-28T02:22:37;-5.60;1.00
11944;DHT22;6031;50.220;10.122;2023-02-28T02:25:16;-5.70;1.00
11944;DHT22;6031;50.220;10.122;2023-02-28T02:27:55;-5.70;1.00
11944;DHT22;6031;50.220;10.122;2023-02-28T02:36:13;-5.70;99.90
11944;DHT22;6031;50.220;10.122;2023-02-28T02:44:12;-5.40;1.00
11944;DHT22;6031;50.220;10.122;2023-02-28T02:46:42;-5.50;99.90
11944;DHT22;6031;50.220;10.122;2023-02-28T02:49:13;-5.50;99.90
11944;DHT22;6031;50.220;10.122;2023-02-28T02:51:40;-5.50;1.00
11944;DHT22;6031;50.220;10.122;2023-02-28T02:54:28;-5.40;1.00
11944;DHT22;6031;50.220;10.122;2023-02-28T02:56:57;-5.40;1.00
11944;DHT22;6031;50.220;10.122;2023-02-28T02:59:24;-5.40;1.00
11944;DHT22;6031;50.220;10.122;2023-02-28T03:01:57;-5.30;1.00
11944;DHT22;6031;50.220;10.122;2023-02-28T03:04:25;-5.30;1.00
11944;DHT22;6031;50.220;10.122;2023-02-28T03:06:52;-5.20;1.00
11944;DHT22;6031;50.220;10.122;2023-02-28T03:09:21;-5.20;1.00
11944;DHT22;6031;50.220;10.122;2023-02-28T03:11:46;-5.10;1.00
11944;DHT22;6031;50.220;10.122;2023-02-28T03:14:26;-5.00;1.00
11944;DHT22;6031;50.220;10.122;2023-02-28T03:19:37;-4.90;1.00
11944;DHT22;6031;50.220;10.122;2023-02-28T03:22:25;-4.90;1.00
11944;DHT22;6031;50.220;10.122;2023-02-28T03:25:18;-4.80;1.00
11944;DHT22;6031;50.220;10.122;2023-02-28T03:28:13;-4.80;1.00
11944;DHT22;6031;50.220;10.122;2023-02-28T03:30:42;-4.70;1.00
11944;DHT22;6031;50.220;10.122;2023-02-28T03:33:50;-4.50;1.00
11944;DHT22;6031;50.220;10.122;2023-02-28T03:36:24;-4.50;1.00
11944;DHT22;6031;50.220;10.122;2023-02-28T03:39:01;-4.60;1.00
11944;DHT22;6031;50.220;10.122;2023-02-28T03:44:22;-4.80;99.90
11944;DHT22;6031;50.220;10.122;2023-02-28T03:46:59;-4.90;99.90
11944;DHT22;6031;50.220;10.122;2023-02-28T03:49:32;-5.10;35.20
11944;DHT22;6031;50.220;10.122;2023-02-28T03:52:02;-5.10;38.60
11944;DHT22;6031;50.220;10.122;2023-02-28T03:54:32;-5.10;1.00
11944;DHT22;6031;50.220;10.122;2023-02-28T03:57:08;-5.20;1.00
11944;DHT22;6031;50.220;10.122;2023-02-28T03:59:54;-5.20;1.00
11944;DHT22;6031;50.220;10.122;2023-02-28T04:02:21;-5.40;1.00
11944;DHT22;6031;50.220;10.122;2023-02-28T04:04:47;-5.50;99.90
11944;DHT22;6031;50.220;10.122;2023-02-28T04:07:14;-5.60;99.90
11944;DHT22;6031;50.220;10.122;2023-02-28T04:09:41;-5.60;99.90
11944;DHT22;6031;50.220;10.122;2023-02-28T04:12:06;-5.70;99.90
11944;DHT22;6031;50.220;10.122;2023-02-28T04:14:32;-5.60;99.90
11944;DHT22;6031;50.220;10.122;2023-02-28T04:16:58;-5.60;1.00
11944;DHT22;6031;50.220;10.122;2023-02-28T04:19:23;-5.60;1.00
11944;DHT22;6031;50.220;10.122;2023-02-28T04:21:51;-5.60;1.00
11944;DHT22;6031;50.220;10.122;2023-02-28T04:24:22;-5.60;1.00
11944;DHT22;6031;50.220;10.122;2023-02-28T04:26:50;-5.50;1.00
11944;DHT22;6031;50.220;10.122;2023-02-28T04:29:26;-5.40;1.00
11944;DHT22;6031;50.220;10.122;2023-02-28T04:31:52;-5.60;1.00
11944;DHT22;6031;50.220;10.122;2023-02-28T04:34:23;-5.60;1.00
11944;DHT22;6031;50.220;10.122;2023-02-28T04:36:49;-5.60;1.00
11944;DHT22;6031;50.220;10.122;2023-02-28T04:39:16;-5.70;1.00
11944;DHT22;6031;50.220;10.122;2023-02-28T04:41:44;-5.60;1.00
11944;DHT22;6031;50.220;10.122;2023-02-28T04:44:09;-5.80;1.00
11944;DHT22;6031;50.220;10.122;2023-02-28T04:46:35;-5.80;1.00
11944;DHT22;6031;50.220;10.122;2023-02-28T04:49:00;-5.70;1.00
11944;DHT22;6031;50.220;10.122;2023-02-28T04:51:26;-5.80;1.00
11944;DHT22;6031;50.220;10.122;2023-02-28T04:53:52;-5.90;1.00
11944;DHT22;6031;50.220;10.122;2023-02-28T04:56:18;-5.90;1.00
11944;DHT22;6031;50.220;10.122;2023-02-28T04:58:43;-5.70;1.00
11944;DHT22;6031;50.220;10.122;2023-02-28T05:01:28;-5.60;1.00
11944;DHT22;6031;50.220;10.122;2023-02-28T05:03:56;-5.70;1.00
11944;DHT22;6031;50.220;10.122;2023-02-28T05:06:24;-5.70;1.00
11944;DHT22;6031;50.220;10.122;2023-02-28T05:08:50;-5.80;1.00
11944;DHT22;6031;50.220;10.122;2023-02-28T05:13:52;-5.70;1.00
11944;DHT22;6031;50.220;10.122;2023-02-28T05:16:19;-5.70;1.00
11944;DHT22;6031;50.220;10.122;2023-02-28T05:18:45;-5.70;1.00
11944;DHT22;6031;50.220;10.122;2023-02-28T05:21:32;-5.70;1.00
11944;DHT22;6031;50.220;10.122;2023-02-28T05:24:02;-5.40;1.00
11944;DHT22;6031;50.220;10.122;2023-02-28T05:26:29;-4.90;1.00
11944;DHT22;6031;50.220;10.122;2023-02-28T05:28:55;-4.70;32.70
11944;DHT22;6031;50.220;10.122;2023-02-28T05:31:21;-4.60;5.00
11944;DHT22;6031;50.220;10.122;2023-02-28T05:33:47;-4.50;1.00
11944;DHT22;6031;50.220;10.122;2023-02-28T05:36:13;-4.50;1.00
11944;DHT22;6031;50.220;10.122;2023-02-28T05:38:38;-4.30;1.00
11944;DHT22;6031;50.220;10.122;2023-02-28T05:41:08;-4.20;1.00
11944;DHT22;6031;50.220;10.122;2023-02-28T05:43:35;-3.90;1.00
11944;DHT22;6031;50.220;10.122;2023-02-28T05:46:05;-3.70;99.90
11944;DHT22;6031;50.220;10.122;2023-02-28T05:48:33;-3.70;1.00
11944;DHT22;6031;50.220;10.122;2023-02-28T05:50:58;-3.70;1.00
11944;DHT22;6031;50.220;10.122;2023-02-28T05:53:24;-3.60;1.00
11944;DHT22;6031;50.220;10.122;2023-02-28T05:55:49;-3.70;1.00
11944;DHT22;6031;50.220;10.122;2023-02-28T05:58:15;-3.50;99.90
11944;DHT22;6031;50.220;10.122;2023-02-28T06:00:40;-3.40;1.00
11944;DHT22;6031;50.220;10.122;2023-02-28T06:03:06;-3.40;1.00
11944;DHT22;6031;50.220;10.122;2023-02-28T06:05:31;-3.40;1.00
11944;DHT22;6031;50.220;10.122;2023-02-28T06:07:57;-3.50;1.00
11944;DHT22;6031;50.220;10.122;2023-02-28T06:10:23;-3.40;1.00
11944;DHT22;6031;50.220;10.122;2023-02-28T06:12:48;-3.40;1.00
11944;DHT22;6031;50.220;10.122;2023-02-28T06:15:15;-3.40;1.00
11944;DHT22;6031;50.220;10.122;2023-02-28T06:17:41;-3.50;1.00
11944;DHT22;6031;50.220;10.122;2023-02-28T06:20:08;-3.60;99.90
11944;DHT22;6031;50.220;10.122;2023-02-28T06:22:35;-3.70;1.00
11944;DHT22;6031;50.220;10.122;2023-02-28T06:25:01;-3.70;1.00
11944;DHT22;6031;50.220;10.122;2023-02-28T06:27:26;-3.50;1.00
11944;DHT22;6031;50.220;10.122;2023-02-28T06:29:54;-3.30;1.00
11944;DHT22;6031;50.220;10.122;2023-02-28T06:32:21;-3.30;1.00
11944;DHT22;6031;50.220;10.122;2023-02-28T06:34:47;-3.10;1.00
11944;DHT22;6031;50.220;10.122;2023-02-28T06:37:12;-3.20;1.00
11944;DHT22;6031;50.220;10.122;2023-02-28T06:39:38;-3.30;1.00
11944;DHT22;6031;50.220;10.122;2023-02-28T06:42:04;-3.30;1.00
11944;DHT22;6031;50.220;10.122;2023-02-28T06:44:30;-3.20;1.00
11944;DHT22;6031;50.220;10.122;2023-02-28T06:47:01;-3.20;99.90
11944;DHT22;6031;50.220;10.122;2023-02-28T06:49:29;-3.10;99.90
11944;DHT22;6031;50.220;10.122;2023-02-28T06:51:54;-3.00;99.90
11944;DHT22;6031;50.220;10.122;2023-02-28T06:54:20;-2.90;1.00
11944;DHT22;6031;50.220;10.122;2023-02-28T06:56:45;-2.90;1.00
11944;DHT22;6031;50.220;10.122;2023-02-28T06:59:12;-3.00;1.00
11944;DHT22;6031;50.220;10.122;2023-02-28T07:01:38;-3.00;1.00
11944;DHT22;6031;50.220;10.122;2023-02-28T07:04:04;-2.80;1.00
11944;DHT22;6031;50.220;10.122;2023-02-28T07:06:30;-2.70;99.90
11944;DHT22;6031;50.220;10.122;2023-02-28T07:08:56;-2.60;99.90
11944;DHT22;6031;50.220;10.122;2023-02-28T07:11:24;-2.60;99.90
11944;DHT22;6031;50.220;10.122;2023-02-28T07:13:51;-2.50;1.00
11944;DHT22;6031;50.220;10.122;2023-02-28T07:16:17;-2.50;1.00
11944;DHT22;6031;50.220;10.122;2023-02-28T07:18:43;-2.50;1.00
11944;DHT22;6031;50.220;10.122;2023-02-28T07:21:09;-2.40;1.00
11944;DHT22;6031;50.220;10.122;2023-02-28T07:23:35;-2.40;1.00
11944;DHT22;6031;50.220;10.122;2023-02-28T07:26:03;-2.30;1.00
11944;DHT22;6031;50.220;10.122;2023-02-28T07:28:29;-2.30;1.00
11944;DHT22;6031;50.220;10.122;2023-02-28T07:30:54;-2.20;1.00
11944;DHT22;6031;50.220;10.122;2023-02-28T07:33:20;-2.00;1.00
11944;DHT22;6031;50.220;10.122;2023-02-28T07:35:45;-1.90;99.90
11944;DHT22;6031;50.220;10.122;2023-02-28T07:38:11;-1.80;99.90
11944;DHT22;6031;50.220;10.122;2023-02-28T07:40:38;-1.70;99.90
11944;DHT22;6031;50.220;10.122;2023-02-28T07:43:04;-1.60;26.70
11944;DHT22;6031;50.220;10.122;2023-02-28T07:45:30;-1.50;1.00
11944;DHT22;6031;50.220;10.122;2023-02-28T07:47:57;-1.40;1.00
11944;DHT22;6031;50.220;10.122;2023-02-28T07:50:22;-1.30;1.00
11944;DHT22;6031;50.220;10.122;2023-02-28T07:52:48;-1.10;1.00
11944;DHT22;6031;50.220;10.122;2023-02-28T07:55:14;-1.00;1.00
11944;DHT22;6031;50.220;10.122;2023-02-28T07:57:40;-0.90;1.00
11944;DHT22;6031;50.220;10.122;2023-02-28T08:00:08;-0.80;99.90
11944;DHT22;6031;50.220;10.122;2023-02-28T08:02:35;-0.70;1.00
11944;DHT22;6031;50.220;10.122;2023-02-28T08:05:01;-0.60;74.80
11944;DHT22;6031;50.220;10.122;2023-02-28T08:07:27;-0.40;1.00
11944;DHT22;6031;50.220;10.122;2023-02-28T08:09:52;-0.30;1.00
11944;DHT22;6031;50.220;10.122;2023-02-28T08:12:18;-0.20;1.00
11944;DHT22;6031;50.220;10.122;2023-02-28T08:14:43;0.00;1.00
11944;DHT22;6031;50.220;10.122;2023-02-28T08:17:10;0.10;1.00
11944;DHT22;6031;50.220;10.122;2023-02-28T08:19:36;1.30;1.00
11944;DHT22;6031;50.220;10.122;2023-02-28T08:22:01;2.60;1.00
11944;DHT22;6031;50.220;10.122;2023-02-28T08:24:27;4.10;99.90
11944;DHT22;6031;50.220;10.122;2023-02-28T08:26:52;5.60;1.00
11944;DHT22;6031;50.220;10.122;2023-02-28T08:29:18;6.50;1.00
11944;DHT22;6031;50.220;10.122;2023-02-28T08:31:44;7.00;1.00
11944;DHT22;6031;50.220;10.122;2023-02-28T08:34:11;7.30;1.00
11944;DHT22;6031;50.220;10.122;2023-02-28T08:36:38;7.50;1.00
11944;DHT22;6031;50.220;10.122;2023-02-28T08:39:05;7.70;1.00
11944;DHT22;6031;50.220;10.122;2023-02-28T08:41:31;7.10;1.00
11944;DHT22;6031;50.220;10.122;2023-02-28T08:43:57;7.50;1.00
11944;DHT22;6031;50.220;10.122;2023-02-28T08:46:23;7.70;1.00
11944;DHT22;6031;50.220;10.122;2023-02-28T08:48:52;7.30;1.00
11944;DHT22;6031;50.220;10.122;2023-02-28T08:51:18;6.30;1.00
11944;DHT22;6031;50.220;10.122;2023-02-28T08:53:47;7.10;1.00
11944;DHT22;6031;50.220;10.122;2023-02-28T08:56:15;8.20;1.00
11944;DHT22;6031;50.220;10.122;2023-02-28T08:58:42;7.60;1.00
11944;DHT22;6031;50.220;10.122;2023-02-28T09:01:10;7.00;1.00
11944;DHT22;6031;50.220;10.122;2023-02-28T09:03:36;6.70;1.00
11944;DHT22;6031;50.220;10.122;2023-02-28T09:06:02;7.00;1.00
11944;DHT22;6031;50.220;10.122;2023-02-28T09:08:29;5.60;1.00
11944;DHT22;6031;50.220;10.122;2023-02-28T09:10:55;4.40;1.00
11944;DHT22;6031;50.220;10.122;2023-02-28T09:13:23;3.70;1.00
11944;DHT22;6031;50.220;10.122;2023-02-28T09:15:49;3.70;1.00
11944;DHT22;6031;50.220;10.122;2023-02-28T09:18:14;4.40;1.00
11944;DHT22;6031;50.220;10.122;2023-02-28T09:20:41;4.90;1.00
11944;DHT22;6031;50.220;10.122;2023-02-28T09:23:08;4.90;1.00
11944;DHT22;6031;50.220;10.122;2023-02-28T09:25:34;4.90;1.00
11944;DHT22;6031;50.220;10.122;2023-02-28T09:28:00;6.00;1.00
11944;DHT22;6031;50.220;10.122;2023-02-28T09:30:26;8.10;1.00
11944;DHT22;6031;50.220;10.122;2023-02-28T09:32:52;8.40;1.00
11944;DHT22;6031;50.220;10.122;2023-02-28T09:35:19;8.80;1.00
11944;DHT22;6031;50.220;10.122;2023-02-28T09:37:47;8.80;1.00
11944;DHT22;6031;50.220;10.122;2023-02-28T09:40:13;9.40;1.00
11944;DHT22;6031;50.220;10.122;2023-02-28T09:42:40;8.10;1.00
11944;DHT22;6031;50.220;10.122;2023-02-28T09:45:19;8.00;1.00
11944;DHT22;6031;50.220;10.122;2023-02-28T09:47:48;8.30;1.00
11944;DHT22;6031;50.220;10.122;2023-02-28T09:53:10;8.20;1.00
11944;DHT22;6031;50.220;10.122;2023-02-28T09:55:51;7.30;1.00
11944;DHT22;6031;50.220;10.122;2023-02-28T09:58:26;7.10;1.00
11944;DHT22;6031;50.220;10.122;2023-02-28T10:01:03;8.30;1.00
11944;DHT22;6031;50.220;10.122;2023-02-28T10:03:38;7.60;1.00
11944;DHT22;6031;50.220;10.122;2023-02-28T10:06:07;5.60;1.00
11944;DHT22;6031;50.220;10.122;2023-02-28T10:11:22;5.30;1.00
11944;DHT22;6031;50.220;10.122;2023-02-28T10:13:58;5.50;1.00
11944;DHT22;6031;50.220;10.122;2023-02-28T10:16:29;6.50;1.00
11944;DHT22;6031;50.220;10.122;2023-02-28T10:19:08;8.80;1.00
11944;DHT22;6031;50.220;10.122;2023-02-28T10:21:46;11.40;1.00
11944;DHT22;6031;50.220;10.122;2023-02-28T10:24:39;10.90;1.00
11944;DHT22;6031;50.220;10.122;2023-02-28T10:27:21;8.10;1.00
11944;DHT22;6031;50.220;10.122;2023-02-28T10:29:52;5.90;1.00
11944;DHT22;6031;50.220;10.122;2023-02-28T10:32:21;4.80;1.00
11944;DHT22;6031;50.220;10.122;2023-02-28T10:34:57;4.80;1.00
11944;DHT22;6031;50.220;10.122;2023-02-28T10:37:22;5.40;1.00
11944;DHT22;6031;50.220;10.122;2023-02-28T10:39:48;5.10;1.00
11944;DHT22;6031;50.220;10.122;2023-02-28T10:42:25;4.70;1.00
11944;DHT22;6031;50.220;10.122;2023-02-28T10:45:06;4.60;1.00
11944;DHT22;6031;50.220;10.122;2023-02-28T10:47:55;4.50;1.00
11944;DHT22;6031;50.220;10.122;2023-02-28T10:52:55;5.30;1.00
11944;DHT22;6031;50.220;10.122;2023-02-28T10:55:30;5.40;1.00
11944;DHT22;6031;50.220;10.122;2023-02-28T10:57:56;5.50;1.00
11944;DHT22;6031;50.220;10.122;2023-02-28T11:00:24;5.50;1.00
11944;DHT22;6031;50.220;10.122;2023-02-28T11:02:53;5.50;1.00
11944;DHT22;6031;50.220;10.122;2023-02-28T11:07:55;5.10;1.00
11944;DHT22;6031;50.220;10.122;2023-02-28T11:10:31;4.80;1.00
11944;DHT22;6031;50.220;10.122;2023-02-28T11:13:01;4.60;1.00
11944;DHT22;6031;50.220;10.122;2023-02-28T11:15:32;4.70;1.00
11944;DHT22;6031;50.220;10.122;2023-02-28T11:20:37;4.70;1.00
11944;DHT22;6031;50.220;10.122;2023-02-28T11:23:04;4.80;1.00
11944;DHT22;6031;50.220;10.122;2023-02-28T11:25:32;5.10;1.00
11944;DHT22;6031;50.220;10.122;2023-02-28T11:28:04;5.40;1.00
11944;DHT22;6031;50.220;10.122;2023-02-28T11:30:36;5.20;1.00
11944;DHT22;6031;50.220;10.122;2023-02-28T11:33:27;5.90;1.00
11944;DHT22;6031;50.220;10.122;2023-02-28T11:35:59;6.70;1.00
11944;DHT22;6031;50.220;10.122;2023-02-28T11:38:26;7.40;1.00
11944;DHT22;6031;50.220;10.122;2023-02-28T11:46:12;6.10;1.00
11944;DHT22;6031;50.220;10.122;2023-02-28T11:51:26;8.80;1.00
11944;DHT22;6031;50.220;10.122;2023-02-28T12:00:17;10.90;1.00
11944;DHT22;6031;50.220;10.122;2023-02-28T12:03:14;10.30;1.00
11944;DHT22;6031;50.220;10.122;2023-02-28T12:05:46;10.60;1.00
11944;DHT22;6031;50.220;10.122;2023-02-28T12:11:00;10.00;1.00
11944;DHT22;6031;50.220;10.122;2023-02-28T12:13:48;10.30;1.00
11944;DHT22;6031;50.220;10.122;2023-02-28T12:16:37;10.40;1.00
11944;DHT22;6031;50.220;10.122;2023-02-28T12:19:22;11.40;1.00
11944;DHT22;6031;50.220;10.122;2023-02-28T12:24:49;10.70;1.00
11944;DHT22;6031;50.220;10.122;2023-02-28T12:27:21;11.40;1.00
11944;DHT22;6031;50.220;10.122;2023-02-28T12:29:53;11.60;1.00
11944;DHT22;6031;50.220;10.122;2023-02-28T12:32:36;10.40;1.00
11944;DHT22;6031;50.220;10.122;2023-02-28T12:35:13;9.60;1.00
11944;DHT22;6031;50.220;10.122;2023-02-28T12:43:09;11.40;1.00
11944;DHT22;6031;50.220;10.122;2023-02-28T12:45:53;11.10;1.00
11944;DHT22;6031;50.220;10.122;2023-02-28T12:48:25;10.80;1.00
11944;DHT22;6031;50.220;10.122;2023-02-28T12:50:53;11.20;1.00
11944;DHT22;6031;50.220;10.122;2023-02-28T12:56:05;11.10;1.00
11944;DHT22;6031;50.220;10.122;2023-02-28T12:58:48;10.80;1.00
11944;DHT22;6031;50.220;10.122;2023-02-28T13:09:55;10.70;1.00
11944;DHT22;6031;50.220;10.122;2023-02-28T13:12:22;11.00;1.00
11944;DHT22;6031;50.220;10.122;2023-02-28T13:14:48;11.30;1.00
11944;DHT22;6031;50.220;10.122;2023-02-28T13:17:20;12.20;1.00
11944;DHT22;6031;50.220;10.122;2023-02-28T13:24:50;10.60;1.00
11944;DHT22;6031;50.220;10.122;2023-02-28T13:27:34;11.50;1.00
11944;DHT22;6031;50.220;10.122;2023-02-28T13:30:01;11.30;1.00
11944;DHT22;6031;50.220;10.122;2023-02-28T13:32:34;10.20;1.00
11944;DHT22;6031;50.220;10.122;2023-02-28T13:37:36;11.50;1.00
11944;DHT22;6031;50.220;10.122;2023-02-28T13:42:36;10.60;1.00
11944;DHT22;6031;50.220;10.122;2023-02-28T13:47:42;10.40;1.00
11944;DHT22;6031;50.220;10.122;2023-02-28T13:56:19;9.80;1.00
11944;DHT22;6031;50.220;10.122;2023-02-28T13:58:55;9.20;1.00
11944;DHT22;6031;50.220;10.122;2023-02-28T14:06:52;9.20;1.00
11944;DHT22;6031;50.220;10.122;2023-02-28T14:09:24;9.20;1.00
11944;DHT22;6031;50.220;10.122;2023-02-28T14:11:51;8.70;1.00
11944;DHT22;6031;50.220;10.122;2023-02-28T14:17:06;8.30;1.00
11944;DHT22;6031;50.220;10.122;2023-02-28T14:19:36;8.10;1.00
11944;DHT22;6031;50.220;10.122;2023-02-28T14:22:36;7.30;1.00
11944;DHT22;6031;50.220;10.122;2023-02-28T14:25:12;6.80;1.00
11944;DHT22;6031;50.220;10.122;2023-02-28T14:36:21;5.20;1.00
11944;DHT22;6031;50.220;10.122;2023-02-28T14:38:52;5.00;1.00
11944;DHT22;6031;50.220;10.122;2023-02-28T14:41:28;5.00;1.00
11944;DHT22;6031;50.220;10.122;2023-02-28T14:43:57;5.00;1.00
11944;DHT22;6031;50.220;10.122;2023-02-28T14:46:26;4.80;1.00
11944;DHT22;6031;50.220;10.122;2023-02-28T14:48:54;4.80;1.00
11944;DHT22;6031;50.220;10.122;2023-02-28T14:51:21;4.70;1.00
11944;DHT22;6031;50.220;10.122;2023-02-28T14:53:51;4.70;1.00
11944;DHT22;6031;50.220;10.122;2023-02-28T14:56:32;4.70;1.00
11944;DHT22;6031;50.220;10.122;2023-02-28T14:58:58;4.60;1.00
11944;DHT22;6031;50.220;10.122;2023-02-28T15:01:25;4.50;1.00
11944;DHT22;6031;50.220;10.122;2023-02-28T15:03:59;4.40;1.00
11944;DHT22;6031;50.220;10.122;2023-02-28T15:06:26;4.40;1.00
11944;DHT22;6031;50.220;10.122;2023-02-28T15:09:27;4.40;1.00
11944;DHT22;6031;50.220;10.122;2023-02-28T15:11:54;4.40;1.00
11944;DHT22;6031;50.220;10.122;2023-02-28T15:14:21;4.30;1.00
11944;DHT22;6031;50.220;10.122;2023-02-28T15:16:55;4.40;1.00
11944;DHT22;6031;50.220;10.122;2023-02-28T15:19:30;4.40;1.00
11944;DHT22;6031;50.220;10.122;2023-02-28T15:22:04;4.40;1.00
11944;DHT22;6031;50.220;10.122;2023-02-28T15:24:45;4.40;1.00
11944;DHT22;6031;50.220;10.122;2023-02-28T15:27:31;4.30;1.00
11944;DHT22;6031;50.220;10.122;2023-02-28T15:30:00;4.30;1.00
11944;DHT22;6031;50.220;10.122;2023-02-28T15:32:35;4.20;1.00
11944;DHT22;6031;50.220;10.122;2023-02-28T15:40:30;4.10;1.00
11944;DHT22;6031;50.220;10.122;2023-02-28T15:43:03;4.10;1.00
11944;DHT22;6031;50.220;10.122;2023-02-28T15:45:37;4.10;1.00
11944;DHT22;6031;50.220;10.122;2023-02-28T15:48:13;4.00;1.00
11944;DHT22;6031;50.220;10.122;2023-02-28T15:50:39;3.90;1.00
11944;DHT22;6031;50.220;10.122;2023-02-28T15:53:16;3.90;1.00
11944;DHT22;6031;50.220;10.122;2023-02-28T15:55:44;3.90;1.00
11944;DHT22;6031;50.220;10.122;2023-02-28T15:58:11;3.90;1.00
11944;DHT22;6031;50.220;10.122;2023-02-28T16:00:38;3.90;1.00
11944;DHT22;6031;50.220;10.122;2023-02-28T16:03:23;3.80;1.00
11944;DHT22;6031;50.220;10.122;2023-02-28T16:06:08;3.70;1.00
11944;DHT22;6031;50.220;10.122;2023-02-28T16:08:34;3.70;1.00
11944;DHT22;6031;50.220;10.122;2023-02-28T16:10:59;3.70;1.00
11944;DHT22;6031;50.220;10.122;2023-02-28T16:13:25;3.60;1.00
11944;DHT22;6031;50.220;10.122;2023-02-28T16:15:50;3.50;1.00
11944;DHT22;6031;50.220;10.122;2023-02-28T16:18:16;3.40;1.00
11944;DHT22;6031;50.220;10.122;2023-02-28T16:20:42;3.40;1.00
11944;DHT22;6031;50.220;10.122;2023-02-28T16:23:09;3.40;1.00
11944;DHT22;6031;50.220;10.122;2023-02-28T16:25:40;3.30;1.00
11944;DHT22;6031;50.220;10.122;2023-02-28T16:28:18;3.20;1.00
11944;DHT22;6031;50.220;10.122;2023-02-28T16:30:45;3.10;1.00
11944;DHT22;6031;50.220;10.122;2023-02-28T16:33:10;3.00;1.00
11944;DHT22;6031;50.220;10.122;2023-02-28T16:35:36;2.90;1.00
11944;DHT22;6031;50.220;10.122;2023-02-28T16:38:01;2.90;1.00
11944;DHT22;6031;50.220;10.122;2023-02-28T16:40:27;2.70;1.00
11944;DHT22;6031;50.220;10.122;2023-02-28T16:42:58;2.70;1.00
11944;DHT22;6031;50.220;10.122;2023-02-28T16:45:26;2.60;1.00
11944;DHT22;6031;50.220;10.122;2023-02-28T16:47:52;2.50;1.00
11944;DHT22;6031;50.220;10.122;2023-02-28T16:50:27;2.50;1.00
11944;DHT22;6031;50.220;10.122;2023-02-28T16:52:53;2.30;1.00
11944;DHT22;6031;50.220;10.122;2023-02-28T16:55:20;2.10;1.00
11944;DHT22;6031;50.220;10.122;2023-02-28T16:57:51;2.00;1.00
11944;DHT22;6031;50.220;10.122;2023-02-28T17:00:17;1.80;1.00
11944;DHT22;6031;50.220;10.122;2023-02-28T17:02:43;1.60;16.10
11944;DHT22;6031;50.220;10.122;2023-02-28T17:05:11;1.40;61.00
11944;DHT22;6031;50.220;10.122;2023-02-28T17:07:37;1.30;99.90
11944;DHT22;6031;50.220;10.122;2023-02-28T17:12:39;1.10;99.90
11944;DHT22;6031;50.220;10.122;2023-02-28T17:15:06;1.00;99.90
11944;DHT22;6031;50.220;10.122;2023-02-28T17:17:31;0.80;99.90
11944;DHT22;6031;50.220;10.122;2023-02-28T17:19:57;0.70;99.90
11944;DHT22;6031;50.220;10.122;2023-02-28T17:22:23;0.60;99.90
11944;DHT22;6031;50.220;10.122;2023-02-28T17:24:49;0.40;1.00
11944;DHT22;6031;50.220;10.122;2023-02-28T17:27:14;0.30;1.00
11944;DHT22;6031;50.220;10.122;2023-02-28T17:29:40;0.30;1.00
11944;DHT22;6031;50.220;10.122;2023-02-28T17:32:06;0.20;1.00
11944;DHT22;6031;50.220;10.122;2023-02-28T17:34:32;0.30;1.00
11944;DHT22;6031;50.220;10.122;2023-02-28T17:36:57;0.30;1.00
11944;DHT22;6031;50.220;10.122;2023-02-28T17:39:23;0.20;1.00
11944;DHT22;6031;50.220;10.122;2023-02-28T17:41:53;0.00;1.00
11944;DHT22;6031;50.220;10.122;2023-02-28T17:44:19;-0.10;1.00
11944;DHT22;6031;50.220;10.122;2023-02-28T17:46:45;-0.20;1.00
11944;DHT22;6031;50.220;10.122;2023-02-28T17:49:11;-0.20;1.00
11944;DHT22;6031;50.220;10.122;2023-02-28T17:51:37;-0.10;1.00
11944;DHT22;6031;50.220;10.122;2023-02-28T17:54:02;-0.10;1.00
11944;DHT22;6031;50.220;10.122;2023-02-28T17:56:28;0.00;1.00
11944;DHT22;6031;50.220;10.122;2023-02-28T17:58:55;0.00;1.00
11944;DHT22;6031;50.220;10.122;2023-02-28T18:01:21;0.10;1.00